sensor_id;sensor_type;location;lat;lon;timestamp;pressure;altitude;pressure_sealevel;temperature;humidity
60089;BME280;45961;53.574;55.878;2023-05-03T00:00:44;100515.63;;;14.52;46.65
60089;BME280;45961;53.574;55.878;2023-05-03T00:01:45;100512.16;;;14.53;46.19
60089;BME280;45961;53.574;55.878;2023-05-03T00:02:45;100512.16;;;14.51;46.46
60089;BME280;45961;53.574;55.878;2023-05-03T00:03:46;100521.69;;;14.48;47.09
60089;BME280;45961;53.574;55.878;2023-05-03T00:04:50;100513.88;;;14.48;46.92
60089;BME280;45961;53.574;55.878;2023-05-03T00:05:52;100518.22;;;14.44;46.76
60089;BME280;45961;53.574;55.878;2023-05-03T00:06:53;100516.47;;;14.42;46.67
60089;BME280;45961;53.574;55.878;2023-05-03T00:07:55;100513.00;;;14.38;47.09
60089;BME280;45961;53.574;55.878;2023-05-03T00:08:56;100524.31;;;14.32;47.91
60089;BME280;45961;53.574;55.878;2023-05-03T00:09:57;100521.72;;;14.32;47.18
60089;BME280;45961;53.574;55.878;2023-05-03T00:10:59;100528.66;;;14.29;47.65
60089;BME280;45961;53.574;55.878;2023-05-03T00:12:00;100526.06;;;14.27;48.16
60089;BME280;45961;53.574;55.878;2023-05-03T00:13:01;100528.69;;;14.27;48.15
60089;BME280;45961;53.574;55.878;2023-05-03T00:14:02;100526.06;;;14.24;48.45
60089;BME280;45961;53.574;55.878;2023-05-03T00:15:03;100533.00;;;14.22;49.17
60089;BME280;45961;53.574;55.878;2023-05-03T00:16:05;100529.53;;;14.22;48.16
60089;BME280;45961;53.574;55.878;2023-05-03T00:17:05;100530.41;;;14.18;48.03
60089;BME280;45961;53.574;55.878;2023-05-03T00:18:06;100533.00;;;14.13;48.72
60089;BME280;45961;53.574;55.878;2023-05-03T00:19:07;100535.59;;;14.15;47.75
60089;BME280;45961;53.574;55.878;2023-05-03T00:20:08;100534.75;;;14.11;48.02
60089;BME280;45961;53.574;55.878;2023-05-03T00:21:09;100533.00;;;14.13;47.88
60089;BME280;45961;53.574;55.878;2023-05-03T00:22:10;100537.34;;;14.13;48.55
60089;BME280;45961;53.574;55.878;2023-05-03T00:23:12;100539.97;;;14.08;48.85
60089;BME280;45961;53.574;55.878;2023-05-03T00:24:13;100534.75;;;14.00;49.42
60089;BME280;45961;53.574;55.878;2023-05-03T00:25:14;100536.47;;;13.98;50.24
60089;BME280;45961;53.574;55.878;2023-05-03T00:26:14;100541.69;;;13.95;49.46
60089;BME280;45961;53.574;55.878;2023-05-03T00:27:16;100539.94;;;13.93;49.32
60089;BME280;45961;53.574;55.878;2023-05-03T00:28:17;100543.41;;;13.86;50.47
60089;BME280;45961;53.574;55.878;2023-05-03T00:29:17;100537.34;;;13.83;50.30
60089;BME280;45961;53.574;55.878;2023-05-03T00:30:20;100538.19;;;13.78;50.19
60089;BME280;45961;53.574;55.878;2023-05-03T00:31:21;100539.97;;;13.79;49.35
60089;BME280;45961;53.574;55.878;2023-05-03T00:32:22;100541.66;;;13.78;49.16
60089;BME280;45961;53.574;55.878;2023-05-03T00:33:23;100542.56;;;13.79;49.26
60089;BME280;45961;53.574;55.878;2023-05-03T00:34:24;100543.41;;;13.79;48.66
60089;BME280;45961;53.574;55.878;2023-05-03T00:35:25;100541.66;;;13.72;48.71
60089;BME280;45961;53.574;55.878;2023-05-03T00:36:26;100545.13;;;13.74;48.38
60089;BME280;45961;53.574;55.878;2023-05-03T00:37:27;100536.47;;;13.81;48.55
60089;BME280;45961;53.574;55.878;2023-05-03T00:38:30;100545.13;;;13.82;48.35
60089;BME280;45961;53.574;55.878;2023-05-03T00:39:31;100542.53;;;13.77;48.51
60089;BME280;45961;53.574;55.878;2023-05-03T00:40:32;100543.41;;;13.75;48.37
60089;BME280;45961;53.574;55.878;2023-05-03T00:41:33;100547.75;;;13.76;48.41
60089;BME280;45961;53.574;55.878;2023-05-03T00:42:34;100545.16;;;13.80;48.22
60089;BME280;45961;53.574;55.878;2023-05-03T00:43:36;100541.69;;;13.85;48.09
60089;BME280;45961;53.574;55.878;2023-05-03T00:44:37;100534.72;;;13.87;48.03
60089;BME280;45961;53.574;55.878;2023-05-03T00:45:38;100542.56;;;13.88;48.16
60089;BME280;45961;53.574;55.878;2023-05-03T00:46:39;100534.75;;;13.88;47.79
60089;BME280;45961;53.574;55.878;2023-05-03T00:47:39;100544.28;;;13.91;47.62
60089;BME280;45961;53.574;55.878;2023-05-03T00:48:40;100541.66;;;13.86;47.91
60089;BME280;45961;53.574;55.878;2023-05-03T00:49:41;100538.22;;;13.92;47.77
60089;BME280;45961;53.574;55.878;2023-05-03T00:50:42;100540.81;;;13.92;47.78
60089;BME280;45961;53.574;55.878;2023-05-03T00:51:43;100541.69;;;14.00;47.35
60089;BME280;45961;53.574;55.878;2023-05-03T00:52:43;100538.22;;;14.04;47.26
60089;BME280;45961;53.574;55.878;2023-05-03T00:53:45;100545.16;;;14.05;47.16
60089;BME280;45961;53.574;55.878;2023-05-03T00:54:46;100541.69;;;14.06;46.81
60089;BME280;45961;53.574;55.878;2023-05-03T00:55:47;100539.97;;;14.11;46.81
60089;BME280;45961;53.574;55.878;2023-05-03T00:56:51;100546.88;;;14.18;46.62
60089;BME280;45961;53.574;55.878;2023-05-03T00:57:52;100542.53;;;14.19;46.53
60089;BME280;45961;53.574;55.878;2023-05-03T00:58:53;100548.66;;;14.19;46.37
60089;BME280;45961;53.574;55.878;2023-05-03T00:59:55;100543.44;;;14.24;46.33
60089;BME280;45961;53.574;55.878;2023-05-03T01:00:56;100543.41;;;14.27;46.35
60089;BME280;45961;53.574;55.878;2023-05-03T01:01:57;100546.03;;;14.28;46.36
60089;BME280;45961;53.574;55.878;2023-05-03T01:02:58;100541.69;;;14.27;46.48
60089;BME280;45961;53.574;55.878;2023-05-03T01:03:59;100539.94;;;14.26;46.71
60089;BME280;45961;53.574;55.878;2023-05-03T01:05:01;100542.53;;;14.31;46.53
60089;BME280;45961;53.574;55.878;2023-05-03T01:06:12;100540.78;;;14.35;46.71
60089;BME280;45961;53.574;55.878;2023-05-03T01:07:20;100541.66;;;14.41;46.48
60089;BME280;45961;53.574;55.878;2023-05-03T01:08:25;100541.66;;;14.43;46.76
60089;BME280;45961;53.574;55.878;2023-05-03T01:09:32;100544.25;;;14.35;47.20
60089;BME280;45961;53.574;55.878;2023-05-03T01:13:01;100547.72;;;14.39;47.82
60089;BME280;45961;53.574;55.878;2023-05-03T01:14:22;100550.34;;;14.45;47.54
60089;BME280;45961;53.574;55.878;2023-05-03T01:15:35;100546.84;;;14.46;47.87
60089;BME280;45961;53.574;55.878;2023-05-03T01:16:39;100554.69;;;14.46;48.33
60089;BME280;45961;53.574;55.878;2023-05-03T01:17:50;100548.63;;;14.44;48.35
60089;BME280;45961;53.574;55.878;2023-05-03T01:18:54;100555.56;;;14.45;48.42
60089;BME280;45961;53.574;55.878;2023-05-03T01:19:55;100555.56;;;14.48;48.54
60089;BME280;45961;53.574;55.878;2023-05-03T01:20:58;100556.41;;;14.47;48.76
60089;BME280;45961;53.574;55.878;2023-05-03T01:22:20;100548.63;;;14.53;48.65
60089;BME280;45961;53.574;55.878;2023-05-03T01:25:06;100546.88;;;14.58;49.21
60089;BME280;45961;53.574;55.878;2023-05-03T01:26:22;100552.06;;;14.58;49.28
60089;BME280;45961;53.574;55.878;2023-05-03T01:27:23;100554.69;;;14.55;49.44
60089;BME280;45961;53.574;55.878;2023-05-03T01:28:24;100549.47;;;14.55;49.67
60089;BME280;45961;53.574;55.878;2023-05-03T01:29:25;100552.06;;;14.58;49.91
60089;BME280;45961;53.574;55.878;2023-05-03T01:30:26;100553.84;;;14.56;49.68
60089;BME280;45961;53.574;55.878;2023-05-03T01:31:30;100557.28;;;14.58;49.29
60089;BME280;45961;53.574;55.878;2023-05-03T01:33:43;100562.47;;;14.67;48.41
60089;BME280;45961;53.574;55.878;2023-05-03T01:35:50;100564.22;;;14.68;48.67
60089;BME280;45961;53.574;55.878;2023-05-03T01:36:52;100560.75;;;14.69;48.72
60089;BME280;45961;53.574;55.878;2023-05-03T01:37:56;100561.56;;;14.82;48.25
60089;BME280;45961;53.574;55.878;2023-05-03T01:38:58;100568.53;;;14.88;47.77
60089;BME280;45961;53.574;55.878;2023-05-03T01:40:03;100560.69;;;14.94;47.63
60089;BME280;45961;53.574;55.878;2023-05-03T01:41:10;100554.56;;;15.04;47.46
60089;BME280;45961;53.574;55.878;2023-05-03T01:42:11;100561.47;;;15.13;47.60
60089;BME280;45961;53.574;55.878;2023-05-03T01:43:14;100560.59;;;15.20;47.96
60089;BME280;45961;53.574;55.878;2023-05-03T01:44:15;100558.72;;;15.45;47.39
60089;BME280;45961;53.574;55.878;2023-05-03T01:45:17;100552.25;;;16.02;46.34
60089;BME280;45961;53.574;55.878;2023-05-03T01:46:18;100561.28;;;16.65;45.23
60089;BME280;45961;53.574;55.878;2023-05-03T01:47:19;100555.47;;;17.18;43.86
60089;BME280;45961;53.574;55.878;2023-05-03T01:48:20;100554.72;;;17.75;43.00
60089;BME280;45961;53.574;55.878;2023-05-03T01:49:21;100556.75;;;18.12;42.34
60089;BME280;45961;53.574;55.878;2023-05-03T01:50:22;100555.81;;;18.65;41.65
60089;BME280;45961;53.574;55.878;2023-05-03T01:51:23;100555.75;;;19.13;40.52
60089;BME280;45961;53.574;55.878;2023-05-03T01:52:24;100555.44;;;19.29;39.96
60089;BME280;45961;53.574;55.878;2023-05-03T01:53:25;100556.81;;;19.45;39.42
60089;BME280;45961;53.574;55.878;2023-05-03T01:54:26;100553.16;;;19.92;38.51
60089;BME280;45961;53.574;55.878;2023-05-03T01:55:27;100549.88;;;20.18;37.87
60089;BME280;45961;53.574;55.878;2023-05-03T01:56:28;100554.25;;;20.54;37.25
60089;BME280;45961;53.574;55.878;2023-05-03T01:57:30;100532.00;;;20.65;36.50
60089;BME280;45961;53.574;55.878;2023-05-03T01:58:31;100557.13;;;21.08;35.93
60089;BME280;45961;53.574;55.878;2023-05-03T01:59:32;100551.50;;;21.50;35.34
60089;BME280;45961;53.574;55.878;2023-05-03T02:00:33;100550.72;;;21.76;34.27
60089;BME280;45961;53.574;55.878;2023-05-03T02:01:34;100557.63;;;21.51;34.23
60089;BME280;45961;53.574;55.878;2023-05-03T02:02:35;100555.59;;;21.31;34.63
60089;BME280;45961;53.574;55.878;2023-05-03T02:03:36;100555.19;;;21.15;34.74
60089;BME280;45961;53.574;55.878;2023-05-03T02:04:37;100563.03;;;21.16;34.86
60089;BME280;45961;53.574;55.878;2023-05-03T02:05:38;100564.88;;;21.44;34.57
60089;BME280;45961;53.574;55.878;2023-05-03T02:06:39;100570.38;;;21.36;34.69
60089;BME280;45961;53.574;55.878;2023-05-03T02:07:40;100568.78;;;21.29;34.96
60089;BME280;45961;53.574;55.878;2023-05-03T02:08:41;100565.97;;;21.06;34.77
60089;BME280;45961;53.574;55.878;2023-05-03T02:09:42;100567.44;;;20.85;34.97
60089;BME280;45961;53.574;55.878;2023-05-03T02:10:44;100568.25;;;21.18;35.22
60089;BME280;45961;53.574;55.878;2023-05-03T02:11:44;100569.72;;;20.97;34.80
60089;BME280;45961;53.574;55.878;2023-05-03T02:12:46;100572.50;;;20.92;35.05
60089;BME280;45961;53.574;55.878;2023-05-03T02:13:48;100565.97;;;21.06;34.89
60089;BME280;45961;53.574;55.878;2023-05-03T02:14:50;100564.81;;;21.14;34.71
60089;BME280;45961;53.574;55.878;2023-05-03T02:15:51;100564.78;;;21.47;34.29
60089;BME280;45961;53.574;55.878;2023-05-03T02:16:52;100568.78;;;21.29;34.71
60089;BME280;45961;53.574;55.878;2023-05-03T02:17:56;100569.44;;;21.39;34.58
60089;BME280;45961;53.574;55.878;2023-05-03T02:18:58;100575.22;;;21.50;33.68
60089;BME280;45961;53.574;55.878;2023-05-03T02:19:59;100572.63;;;21.49;33.38
60089;BME280;45961;53.574;55.878;2023-05-03T02:21:00;100577.00;;;21.18;33.61
60089;BME280;45961;53.574;55.878;2023-05-03T02:22:01;100575.25;;;21.19;34.18
60089;BME280;45961;53.574;55.878;2023-05-03T02:23:02;100578.97;;;21.10;33.77
60089;BME280;45961;53.574;55.878;2023-05-03T02:24:03;100576.06;;;21.21;33.61
60089;BME280;45961;53.574;55.878;2023-05-03T02:25:04;100577.34;;;21.67;33.43
60089;BME280;45961;53.574;55.878;2023-05-03T02:26:06;100575.47;;;21.71;32.59
60089;BME280;45961;53.574;55.878;2023-05-03T02:27:07;100571.56;;;21.82;32.41
60089;BME280;45961;53.574;55.878;2023-05-03T02:28:08;100575.25;;;22.05;32.41
60089;BME280;45961;53.574;55.878;2023-05-03T02:29:09;100575.84;;;22.14;31.96
60089;BME280;45961;53.574;55.878;2023-05-03T02:30:10;100578.53;;;22.13;31.89
60089;BME280;45961;53.574;55.878;2023-05-03T02:31:16;100572.47;;;22.09;32.37
60089;BME280;45961;53.574;55.878;2023-05-03T02:32:17;100578.22;;;21.94;32.73
60089;BME280;45961;53.574;55.878;2023-05-03T02:33:20;100579.72;;;21.75;32.43
60089;BME280;45961;53.574;55.878;2023-05-03T02:34:22;100579.31;;;21.88;32.03
60089;BME280;45961;53.574;55.878;2023-05-03T02:35:24;100581.19;;;22.13;31.89
60089;BME280;45961;53.574;55.878;2023-05-03T02:36:25;100585.25;;;21.95;31.85
60089;BME280;45961;53.574;55.878;2023-05-03T02:37:27;100580.72;;;21.71;32.10
60089;BME280;45961;53.574;55.878;2023-05-03T02:38:28;100577.84;;;21.78;32.07
60089;BME280;45961;53.574;55.878;2023-05-03T02:39:29;100585.28;;;21.65;31.55
60089;BME280;45961;53.574;55.878;2023-05-03T02:40:30;100585.69;;;21.81;31.52
60089;BME280;45961;53.574;55.878;2023-05-03T02:41:33;100580.50;;;21.78;32.05
60089;BME280;45961;53.574;55.878;2023-05-03T02:42:34;100584.38;;;21.66;31.69
60089;BME280;45961;53.574;55.878;2023-05-03T02:43:35;100586.75;;;21.76;31.11
60089;BME280;45961;53.574;55.878;2023-05-03T02:44:36;100585.88;;;22.03;31.75
60089;BME280;45961;53.574;55.878;2023-05-03T02:45:37;100581.22;;;22.11;31.28
60089;BME280;45961;53.574;55.878;2023-05-03T02:46:38;100582.94;;;22.12;30.85
60089;BME280;45961;53.574;55.878;2023-05-03T02:47:41;100589.75;;;22.20;31.39
60089;BME280;45961;53.574;55.878;2023-05-03T02:48:42;100591.66;;;22.14;31.00
60089;BME280;45961;53.574;55.878;2023-05-03T02:49:43;100587.50;;;22.34;31.07
60089;BME280;45961;53.574;55.878;2023-05-03T02:50:44;100580.28;;;22.12;31.24
60089;BME280;45961;53.574;55.878;2023-05-03T02:51:45;100582.88;;;22.15;31.97
60089;BME280;45961;53.574;55.878;2023-05-03T02:52:46;100587.22;;;22.16;31.56
60089;BME280;45961;53.574;55.878;2023-05-03T02:53:46;100594.78;;;21.99;31.95
60089;BME280;45961;53.574;55.878;2023-05-03T02:54:47;100584.56;;;21.88;31.49
60089;BME280;45961;53.574;55.878;2023-05-03T02:55:49;100589.63;;;21.94;31.74
60089;BME280;45961;53.574;55.878;2023-05-03T02:56:50;100590.13;;;22.07;31.34
60089;BME280;45961;53.574;55.878;2023-05-03T02:57:51;100583.13;;;21.78;31.80
60089;BME280;45961;53.574;55.878;2023-05-03T02:58:54;100592.72;;;21.81;31.89
60089;BME280;45961;53.574;55.878;2023-05-03T02:59:56;100590.22;;;22.04;31.76
60089;BME280;45961;53.574;55.878;2023-05-03T03:00:56;100578.22;;;21.94;32.02
60089;BME280;45961;53.574;55.878;2023-05-03T03:02:00;100582.63;;;21.67;32.37
60089;BME280;45961;53.574;55.878;2023-05-03T03:03:01;100582.81;;;21.61;32.95
60089;BME280;45961;53.574;55.878;2023-05-03T03:04:02;100584.72;;;21.84;32.02
60089;BME280;45961;53.574;55.878;2023-05-03T03:05:04;100580.72;;;21.71;32.04
60089;BME280;45961;53.574;55.878;2023-05-03T03:06:05;100578.47;;;21.58;31.83
60089;BME280;45961;53.574;55.878;2023-05-03T03:07:11;100579.09;;;21.66;31.43
60089;BME280;45961;53.574;55.878;2023-05-03T03:08:12;100576.75;;;21.57;31.32
60089;BME280;45961;53.574;55.878;2023-05-03T03:09:13;100581.16;;;21.27;31.82
60089;BME280;45961;53.574;55.878;2023-05-03T03:10:15;100584.47;;;21.34;31.54
60089;BME280;45961;53.574;55.878;2023-05-03T03:11:16;100577.78;;;21.22;31.86
60089;BME280;45961;53.574;55.878;2023-05-03T03:12:17;100582.63;;;21.37;31.55
60089;BME280;45961;53.574;55.878;2023-05-03T03:13:18;100578.47;;;21.29;31.86
60089;BME280;45961;53.574;55.878;2023-05-03T03:14:18;100586.25;;;21.33;32.13
60089;BME280;45961;53.574;55.878;2023-05-03T03:15:19;100585.66;;;21.22;32.24
60089;BME280;45961;53.574;55.878;2023-05-03T03:16:20;100583.53;;;21.36;32.26
60089;BME280;45961;53.574;55.878;2023-05-03T03:17:21;100572.25;;;21.61;32.27
60089;BME280;45961;53.574;55.878;2023-05-03T03:18:22;100580.47;;;22.06;31.56
60089;BME280;45961;53.574;55.878;2023-05-03T03:19:23;100584.00;;;22.33;31.46
60089;BME280;45961;53.574;55.878;2023-05-03T03:20:25;100580.72;;;22.27;31.37
60089;BME280;45961;53.574;55.878;2023-05-03T03:21:26;100579.06;;;22.24;31.26
60089;BME280;45961;53.574;55.878;2023-05-03T03:22:28;100579.31;;;22.16;32.19
60089;BME280;45961;53.574;55.878;2023-05-03T03:23:29;100577.84;;;22.06;31.76
60089;BME280;45961;53.574;55.878;2023-05-03T03:24:32;100576.19;;;22.30;31.89
60089;BME280;45961;53.574;55.878;2023-05-03T03:25:35;100578.47;;;22.41;31.93
60089;BME280;45961;53.574;55.878;2023-05-03T03:26:36;100583.31;;;22.28;30.86
60089;BME280;45961;53.574;55.878;2023-05-03T03:27:37;100586.41;;;22.41;31.66
60089;BME280;45961;53.574;55.878;2023-05-03T03:28:38;100579.81;;;22.28;31.23
60089;BME280;45961;53.574;55.878;2023-05-03T03:29:43;100581.97;;;22.66;31.08
60089;BME280;45961;53.574;55.878;2023-05-03T03:30:46;100582.56;;;22.75;30.98
60089;BME280;45961;53.574;55.878;2023-05-03T03:31:58;100587.81;;;22.76;30.73
60089;BME280;45961;53.574;55.878;2023-05-03T03:32:59;100581.97;;;22.93;29.86
60089;BME280;45961;53.574;55.878;2023-05-03T03:34:07;100580.66;;;22.80;29.23
60089;BME280;45961;53.574;55.878;2023-05-03T03:35:08;100578.91;;;22.79;29.02
60089;BME280;45961;53.574;55.878;2023-05-03T03:36:10;100579.56;;;22.85;28.98
60089;BME280;45961;53.574;55.878;2023-05-03T03:37:14;100580.84;;;22.74;28.76
60089;BME280;45961;53.574;55.878;2023-05-03T03:38:16;100573.13;;;22.94;28.81
60089;BME280;45961;53.574;55.878;2023-05-03T03:39:24;100579.03;;;22.76;28.18
60089;BME280;45961;53.574;55.878;2023-05-03T03:40:25;100568.47;;;23.01;28.54
60089;BME280;45961;53.574;55.878;2023-05-03T03:41:28;100571.75;;;23.07;28.13
60089;BME280;45961;53.574;55.878;2023-05-03T03:42:30;100567.97;;;23.14;27.71
60089;BME280;45961;53.574;55.878;2023-05-03T03:43:34;100563.25;;;22.99;26.99
60089;BME280;45961;53.574;55.878;2023-05-03T03:44:41;100566.53;;;22.56;27.14
60089;BME280;45961;53.574;55.878;2023-05-03T03:45:42;100577.09;;;22.81;27.74
60089;BME280;45961;53.574;55.878;2023-05-03T03:46:46;100568.41;;;23.02;27.68
60089;BME280;45961;53.574;55.878;2023-05-03T03:47:48;100566.13;;;23.17;27.48
60089;BME280;45961;53.574;55.878;2023-05-03T03:48:49;100567.72;;;22.97;26.95
60089;BME280;45961;53.574;55.878;2023-05-03T03:49:50;100566.47;;;23.07;27.73
60089;BME280;45961;53.574;55.878;2023-05-03T03:50:52;100575.72;;;22.96;27.52
60089;BME280;45961;53.574;55.878;2023-05-03T03:51:55;100574.69;;;23.00;27.62
60089;BME280;45961;53.574;55.878;2023-05-03T03:52:56;100569.84;;;23.11;27.61
60089;BME280;45961;53.574;55.878;2023-05-03T03:53:57;100557.66;;;23.08;27.33
60089;BME280;45961;53.574;55.878;2023-05-03T03:55:02;100557.41;;;22.89;27.09
60089;BME280;45961;53.574;55.878;2023-05-03T03:56:03;100562.19;;;23.05;27.10
60089;BME280;45961;53.574;55.878;2023-05-03T03:57:05;100561.88;;;22.64;27.01
60089;BME280;45961;53.574;55.878;2023-05-03T03:58:07;100564.00;;;22.78;26.85
60089;BME280;45961;53.574;55.878;2023-05-03T03:59:08;100558.66;;;22.79;26.68
60089;BME280;45961;53.574;55.878;2023-05-03T04:00:09;100556.00;;;22.56;26.62
60089;BME280;45961;53.574;55.878;2023-05-03T04:01:17;100555.63;;;22.92;27.79
60089;BME280;45961;53.574;55.878;2023-05-03T04:02:18;100553.59;;;22.98;27.19
60089;BME280;45961;53.574;55.878;2023-05-03T04:03:19;100555.81;;;22.85;25.90
60089;BME280;45961;53.574;55.878;2023-05-03T04:04:21;100549.44;;;22.93;26.30
60089;BME280;45961;53.574;55.878;2023-05-03T04:05:23;100555.38;;;22.98;26.71
60089;BME280;45961;53.574;55.878;2023-05-03T04:06:25;100554.00;;;22.87;26.96
60089;BME280;45961;53.574;55.878;2023-05-03T04:07:29;100551.19;;;23.15;27.14
60089;BME280;45961;53.574;55.878;2023-05-03T04:08:30;100550.19;;;23.20;26.48
60089;BME280;45961;53.574;55.878;2023-05-03T04:09:31;100553.03;;;23.37;26.45
60089;BME280;45961;53.574;55.878;2023-05-03T04:10:35;100553.22;;;23.54;26.65
60089;BME280;45961;53.574;55.878;2023-05-03T04:11:36;100555.91;;;23.31;26.79
60089;BME280;45961;53.574;55.878;2023-05-03T04:12:38;100546.38;;;23.03;26.72
60089;BME280;45961;53.574;55.878;2023-05-03T04:13:39;100549.94;;;23.02;26.80
60089;BME280;45961;53.574;55.878;2023-05-03T04:14:40;100553.91;;;22.89;26.89
60089;BME280;45961;53.574;55.878;2023-05-03T04:15:41;100549.88;;;22.79;26.88
60089;BME280;45961;53.574;55.878;2023-05-03T04:16:42;100557.47;;;23.13;27.71
60089;BME280;45961;53.574;55.878;2023-05-03T04:17:43;100555.78;;;23.34;27.39
60089;BME280;45961;53.574;55.878;2023-05-03T04:18:45;100548.31;;;23.45;27.76
60089;BME280;45961;53.574;55.878;2023-05-03T04:19:46;100558.28;;;23.60;27.60
60089;BME280;45961;53.574;55.878;2023-05-03T04:20:47;100551.41;;;23.56;27.78
60089;BME280;45961;53.574;55.878;2023-05-03T04:21:49;100554.38;;;23.47;26.61
60089;BME280;45961;53.574;55.878;2023-05-03T04:22:52;100554.66;;;23.18;26.22
60089;BME280;45961;53.574;55.878;2023-05-03T04:23:56;100552.75;;;22.98;26.18
60089;BME280;45961;53.574;55.878;2023-05-03T04:24:59;100556.81;;;23.06;26.40
60089;BME280;45961;53.574;55.878;2023-05-03T04:26:04;100554.56;;;22.71;25.73
60089;BME280;45961;53.574;55.878;2023-05-03T04:27:06;100545.97;;;22.90;26.57
60089;BME280;45961;53.574;55.878;2023-05-03T04:28:10;100546.72;;;23.18;26.69
60089;BME280;45961;53.574;55.878;2023-05-03T04:29:15;100550.38;;;23.37;26.63
60089;BME280;45961;53.574;55.878;2023-05-03T04:30:17;100548.53;;;23.15;26.48
60089;BME280;45961;53.574;55.878;2023-05-03T04:31:23;100547.06;;;22.83;26.29
60089;BME280;45961;53.574;55.878;2023-05-03T04:32:27;100544.47;;;23.07;26.49
60089;BME280;45961;53.574;55.878;2023-05-03T04:33:30;100541.34;;;22.97;26.00
60089;BME280;45961;53.574;55.878;2023-05-03T04:34:35;100537.59;;;22.78;25.78
60089;BME280;45961;53.574;55.878;2023-05-03T04:35:39;100539.00;;;22.88;26.28
60089;BME280;45961;53.574;55.878;2023-05-03T04:36:43;100535.50;;;22.87;25.95
60089;BME280;45961;53.574;55.878;2023-05-03T04:37:46;100544.06;;;22.94;26.01
60089;BME280;45961;53.574;55.878;2023-05-03T04:38:51;100537.88;;;22.95;25.83
60089;BME280;45961;53.574;55.878;2023-05-03T04:39:52;100534.44;;;22.93;26.44
60089;BME280;45961;53.574;55.878;2023-05-03T04:40:54;100522.34;;;22.86;26.30
60089;BME280;45961;53.574;55.878;2023-05-03T04:41:57;100533.22;;;23.02;26.56
60089;BME280;45961;53.574;55.878;2023-05-03T04:42:58;100529.34;;;23.12;26.49
60089;BME280;45961;53.574;55.878;2023-05-03T04:43:59;100530.41;;;23.06;25.74
60089;BME280;45961;53.574;55.878;2023-05-03T04:45:00;100531.09;;;22.88;25.15
60089;BME280;45961;53.574;55.878;2023-05-03T04:46:04;100526.94;;;22.81;25.33
60089;BME280;45961;53.574;55.878;2023-05-03T04:47:05;100526.03;;;22.82;25.46
60089;BME280;45961;53.574;55.878;2023-05-03T04:48:06;100527.59;;;22.87;25.53
60089;BME280;45961;53.574;55.878;2023-05-03T04:49:07;100522.72;;;22.75;25.27
60089;BME280;45961;53.574;55.878;2023-05-03T04:50:08;100518.34;;;22.99;25.79
60089;BME280;45961;53.574;55.878;2023-05-03T04:51:11;100505.81;;;22.81;25.91
60089;BME280;45961;53.574;55.878;2023-05-03T04:52:13;100516.75;;;22.95;25.58
60089;BME280;45961;53.574;55.878;2023-05-03T04:53:14;100526.47;;;22.70;25.57
60089;BME280;45961;53.574;55.878;2023-05-03T04:54:18;100515.97;;;22.93;25.45
60089;BME280;45961;53.574;55.878;2023-05-03T04:55:19;100523.78;;;22.96;25.85
60089;BME280;45961;53.574;55.878;2023-05-03T04:56:21;100521.69;;;22.79;24.79
60089;BME280;45961;53.574;55.878;2023-05-03T04:57:28;100523.06;;;22.91;25.58
60089;BME280;45961;53.574;55.878;2023-05-03T04:58:29;100514.13;;;22.70;24.76
60089;BME280;45961;53.574;55.878;2023-05-03T04:59:30;100517.94;;;22.86;25.46
60089;BME280;45961;53.574;55.878;2023-05-03T05:00:32;100524.53;;;23.00;25.61
60089;BME280;45961;53.574;55.878;2023-05-03T05:01:39;100531.16;;;23.10;26.15
60089;BME280;45961;53.574;55.878;2023-05-03T05:02:41;100512.59;;;22.88;24.99
60089;BME280;45961;53.574;55.878;2023-05-03T05:03:42;100517.31;;;22.80;24.86
60089;BME280;45961;53.574;55.878;2023-05-03T05:04:49;100515.13;;;22.91;24.74
60089;BME280;45961;53.574;55.878;2023-05-03T05:05:50;100519.47;;;22.94;24.80
60089;BME280;45961;53.574;55.878;2023-05-03T05:06:52;100511.38;;;22.98;24.14
60089;BME280;45961;53.574;55.878;2023-05-03T05:07:56;100519.47;;;22.94;23.98
60089;BME280;45961;53.574;55.878;2023-05-03T05:08:58;100514.28;;;23.14;24.23
60089;BME280;45961;53.574;55.878;2023-05-03T05:09:58;100511.34;;;23.22;24.18
60089;BME280;45961;53.574;55.878;2023-05-03T05:11:00;100512.41;;;22.94;23.95
60089;BME280;45961;53.574;55.878;2023-05-03T05:12:04;100513.88;;;23.25;24.34
60089;BME280;45961;53.574;55.878;2023-05-03T05:13:11;100512.75;;;23.08;24.14
60089;BME280;45961;53.574;55.878;2023-05-03T05:14:12;100505.13;;;23.01;23.63
60089;BME280;45961;53.574;55.878;2023-05-03T05:15:13;100507.69;;;23.26;24.23
60089;BME280;45961;53.574;55.878;2023-05-03T05:16:14;100507.00;;;23.43;24.32
60089;BME280;45961;53.574;55.878;2023-05-03T05:17:22;100508.22;;;23.34;23.17
60089;BME280;45961;53.574;55.878;2023-05-03T05:18:27;100500.78;;;23.22;23.18
60089;BME280;45961;53.574;55.878;2023-05-03T05:19:29;100507.56;;;23.29;22.78
60089;BME280;45961;53.574;55.878;2023-05-03T05:20:30;100504.56;;;23.14;22.43
60089;BME280;45961;53.574;55.878;2023-05-03T05:21:32;100508.16;;;23.13;22.44
60089;BME280;45961;53.574;55.878;2023-05-03T05:22:34;100499.19;;;23.18;22.41
60089;BME280;45961;53.574;55.878;2023-05-03T05:23:35;100504.63;;;23.36;22.95
60089;BME280;45961;53.574;55.878;2023-05-03T05:24:36;100502.84;;;23.37;23.19
60089;BME280;45961;53.574;55.878;2023-05-03T05:25:37;100510.31;;;23.26;22.67
60089;BME280;45961;53.574;55.878;2023-05-03T05:26:41;100507.66;;;23.04;22.25
60089;BME280;45961;53.574;55.878;2023-05-03T05:27:43;100501.66;;;22.99;23.13